sensor_id;sensor_type;location;lat;lon;timestamp;temperature;humidity
68701;DHT22;55682;51.114;5.882;2023-02-22T00:00:40;8.19;89.90
68701;DHT22;55682;51.114;5.882;2023-02-22T00:05:35;8.28;89.70
68701;DHT22;55682;51.114;5.882;2023-02-22T00:08:05;8.31;89.60
68701;DHT22;55682;51.114;5.882;2023-02-22T00:10:34;8.34;89.59
68701;DHT22;55682;51.114;5.882;2023-02-22T00:13:05;8.35;89.79
68701;DHT22;55682;51.114;5.882;2023-02-22T00:15:31;8.32;89.73
68701;DHT22;55682;51.114;5.882;2023-02-22T00:17:58;8.31;89.32
68701;DHT22;55682;51.114;5.882;2023-02-22T00:20:23;8.21;89.41
68701;DHT22;55682;51.114;5.882;2023-02-22T00:22:50;8.03;90.31
68701;DHT22;55682;51.114;5.882;2023-02-22T00:25:18;7.99;90.43
68701;DHT22;55682;51.114;5.882;2023-02-22T00:27:45;7.92;90.80
68701;DHT22;55682;51.114;5.882;2023-02-22T00:30:22;7.93;90.91
68701;DHT22;55682;51.114;5.882;2023-02-22T00:32:49;7.88;91.39
68701;DHT22;55682;51.114;5.882;2023-02-22T00:35:16;7.88;91.23
68701;DHT22;55682;51.114;5.882;2023-02-22T00:37:45;7.90;91.33
68701;DHT22;55682;51.114;5.882;2023-02-22T00:40:19;7.88;91.30
68701;DHT22;55682;51.114;5.882;2023-02-22T00:42:45;7.77;91.53
68701;DHT22;55682;51.114;5.882;2023-02-22T00:45:15;7.72;92.14
68701;DHT22;55682;51.114;5.882;2023-02-22T00:47:41;7.78;91.75
68701;DHT22;55682;51.114;5.882;2023-02-22T00:50:07;7.71;92.30
68701;DHT22;55682;51.114;5.882;2023-02-22T00:52:35;7.87;91.82
68701;DHT22;55682;51.114;5.882;2023-02-22T00:55:05;8.03;91.33
68701;DHT22;55682;51.114;5.882;2023-02-22T00:57:31;8.00;91.17
68701;DHT22;55682;51.114;5.882;2023-02-22T01:00:06;7.93;91.35
68701;DHT22;55682;51.114;5.882;2023-02-22T01:02:42;7.91;91.39
68701;DHT22;55682;51.114;5.882;2023-02-22T01:05:10;7.94;91.18
68701;DHT22;55682;51.114;5.882;2023-02-22T01:07:41;8.01;91.15
68701;DHT22;55682;51.114;5.882;2023-02-22T01:10:08;7.97;91.11
68701;DHT22;55682;51.114;5.882;2023-02-22T01:12:35;7.99;91.21
68701;DHT22;55682;51.114;5.882;2023-02-22T01:15:07;8.03;91.36
68701;DHT22;55682;51.114;5.882;2023-02-22T01:17:36;8.14;91.01
68701;DHT22;55682;51.114;5.882;2023-02-22T01:20:04;8.17;90.75
68701;DHT22;55682;51.114;5.882;2023-02-22T01:22:42;8.16;90.86
68701;DHT22;55682;51.114;5.882;2023-02-22T01:25:10;8.15;90.99
68701;DHT22;55682;51.114;5.882;2023-02-22T01:27:36;8.08;90.85
68701;DHT22;55682;51.114;5.882;2023-02-22T01:30:05;8.07;91.24
68701;DHT22;55682;51.114;5.882;2023-02-22T01:32:39;8.08;91.34
68701;DHT22;55682;51.114;5.882;2023-02-22T01:35:11;8.09;91.34
68701;DHT22;55682;51.114;5.882;2023-02-22T01:37:38;8.19;91.25
68701;DHT22;55682;51.114;5.882;2023-02-22T01:40:07;8.24;90.90
68701;DHT22;55682;51.114;5.882;2023-02-22T01:42:34;8.24;90.55
68701;DHT22;55682;51.114;5.882;2023-02-22T01:48:16;8.29;90.06
68701;DHT22;55682;51.114;5.882;2023-02-22T01:53:30;8.26;90.18
68701;DHT22;55682;51.114;5.882;2023-02-22T01:55:59;8.29;90.23
68701;DHT22;55682;51.114;5.882;2023-02-22T01:58:28;8.26;90.02
68701;DHT22;55682;51.114;5.882;2023-02-22T02:00:56;8.21;90.07
68701;DHT22;55682;51.114;5.882;2023-02-22T02:03:27;8.26;90.15
68701;DHT22;55682;51.114;5.882;2023-02-22T02:05:59;8.36;89.78
68701;DHT22;55682;51.114;5.882;2023-02-22T02:08:55;8.49;89.36
68701;DHT22;55682;51.114;5.882;2023-02-22T02:11:24;8.62;89.13
68701;DHT22;55682;51.114;5.882;2023-02-22T02:13:53;8.64;88.69
68701;DHT22;55682;51.114;5.882;2023-02-22T02:16:26;8.66;88.35
68701;DHT22;55682;51.114;5.882;2023-02-22T02:18:54;8.63;88.39
68701;DHT22;55682;51.114;5.882;2023-02-22T02:27:01;8.60;87.59
68701;DHT22;55682;51.114;5.882;2023-02-22T02:29:38;8.53;87.96
68701;DHT22;55682;51.114;5.882;2023-02-22T02:32:20;8.58;87.96
68701;DHT22;55682;51.114;5.882;2023-02-22T02:35:08;8.64;87.74
68701;DHT22;55682;51.114;5.882;2023-02-22T02:40:49;8.51;86.80
68701;DHT22;55682;51.114;5.882;2023-02-22T02:46:18;8.49;87.10
68701;DHT22;55682;51.114;5.882;2023-02-22T02:48:51;8.50;86.97
68701;DHT22;55682;51.114;5.882;2023-02-22T02:51:28;8.49;86.99
68701;DHT22;55682;51.114;5.882;2023-02-22T02:53:54;8.49;87.39
68701;DHT22;55682;51.114;5.882;2023-02-22T02:56:22;8.50;87.19
68701;DHT22;55682;51.114;5.882;2023-02-22T02:58:51;8.41;86.96
68701;DHT22;55682;51.114;5.882;2023-02-22T03:07:48;8.22;87.24
68701;DHT22;55682;51.114;5.882;2023-02-22T03:13:06;8.16;87.99
68701;DHT22;55682;51.114;5.882;2023-02-22T03:16:19;8.20;88.06
68701;DHT22;55682;51.114;5.882;2023-02-22T03:19:01;8.17;87.86
68701;DHT22;55682;51.114;5.882;2023-02-22T03:24:31;8.22;87.03
68701;DHT22;55682;51.114;5.882;2023-02-22T03:27:04;8.21;86.49
68701;DHT22;55682;51.114;5.882;2023-02-22T03:29:38;8.09;86.27
68701;DHT22;55682;51.114;5.882;2023-02-22T03:32:14;8.09;86.22
68701;DHT22;55682;51.114;5.882;2023-02-22T03:35:05;8.09;86.31
68701;DHT22;55682;51.114;5.882;2023-02-22T03:37:43;8.12;86.52
68701;DHT22;55682;51.114;5.882;2023-02-22T03:40:15;8.15;86.82
68701;DHT22;55682;51.114;5.882;2023-02-22T03:42:49;8.12;86.96
68701;DHT22;55682;51.114;5.882;2023-02-22T03:45:20;8.14;86.56
68701;DHT22;55682;51.114;5.882;2023-02-22T03:48:29;8.16;86.38
68701;DHT22;55682;51.114;5.882;2023-02-22T03:50:48;8.17;86.34
68701;DHT22;55682;51.114;5.882;2023-02-22T03:53:18;8.06;86.57
68701;DHT22;55682;51.114;5.882;2023-02-22T03:55:49;7.98;86.54
68701;DHT22;55682;51.114;5.882;2023-02-22T03:58:20;7.93;86.22
68701;DHT22;55682;51.114;5.882;2023-02-22T04:00:48;7.86;85.94
68701;DHT22;55682;51.114;5.882;2023-02-22T04:03:22;7.86;85.77
68701;DHT22;55682;51.114;5.882;2023-02-22T04:05:48;7.85;85.84
68701;DHT22;55682;51.114;5.882;2023-02-22T04:08:14;7.86;85.94
68701;DHT22;55682;51.114;5.882;2023-02-22T04:10:40;7.87;86.04
68701;DHT22;55682;51.114;5.882;2023-02-22T04:13:06;7.81;86.12
68701;DHT22;55682;51.114;5.882;2023-02-22T04:15:35;7.81;86.58
68701;DHT22;55682;51.114;5.882;2023-02-22T04:18:04;7.68;86.74
68701;DHT22;55682;51.114;5.882;2023-02-22T04:20:30;7.67;86.72
68701;DHT22;55682;51.114;5.882;2023-02-22T04:23:06;7.65;86.83
68701;DHT22;55682;51.114;5.882;2023-02-22T04:25:32;7.70;86.96
68701;DHT22;55682;51.114;5.882;2023-02-22T04:28:09;7.71;86.91
68701;DHT22;55682;51.114;5.882;2023-02-22T04:30:43;7.74;86.74
68701;DHT22;55682;51.114;5.882;2023-02-22T04:33:13;7.75;86.82
68701;DHT22;55682;51.114;5.882;2023-02-22T04:35:39;7.77;86.97
68701;DHT22;55682;51.114;5.882;2023-02-22T04:38:05;7.78;86.57
68701;DHT22;55682;51.114;5.882;2023-02-22T04:40:31;7.74;86.60
68701;DHT22;55682;51.114;5.882;2023-02-22T04:42:57;7.73;86.41
68701;DHT22;55682;51.114;5.882;2023-02-22T04:45:24;7.73;86.48
68701;DHT22;55682;51.114;5.882;2023-02-22T04:47:50;7.74;86.29
68701;DHT22;55682;51.114;5.882;2023-02-22T04:50:16;7.74;85.75
68701;DHT22;55682;51.114;5.882;2023-02-22T04:52:42;7.68;85.72
68701;DHT22;55682;51.114;5.882;2023-02-22T04:55:08;7.64;85.80
68701;DHT22;55682;51.114;5.882;2023-02-22T04:57:35;7.62;85.71
68701;DHT22;55682;51.114;5.882;2023-02-22T05:00:02;7.61;85.84
68701;DHT22;55682;51.114;5.882;2023-02-22T05:02:30;7.63;85.74
68701;DHT22;55682;51.114;5.882;2023-02-22T05:04:56;7.68;85.90
68701;DHT22;55682;51.114;5.882;2023-02-22T05:07:22;7.72;85.84
68701;DHT22;55682;51.114;5.882;2023-02-22T05:09:47;7.68;85.75
68701;DHT22;55682;51.114;5.882;2023-02-22T05:12:13;7.60;85.71
68701;DHT22;55682;51.114;5.882;2023-02-22T05:14:39;7.54;85.85
68701;DHT22;55682;51.114;5.882;2023-02-22T05:17:05;7.48;85.94
68701;DHT22;55682;51.114;5.882;2023-02-22T05:19:31;7.44;86.00
68701;DHT22;55682;51.114;5.882;2023-02-22T05:21:57;7.37;86.22
68701;DHT22;55682;51.114;5.882;2023-02-22T05:24:23;7.31;86.25
68701;DHT22;55682;51.114;5.882;2023-02-22T05:26:49;7.27;86.09
68701;DHT22;55682;51.114;5.882;2023-02-22T05:29:15;7.22;86.19
68701;DHT22;55682;51.114;5.882;2023-02-22T05:31:41;7.19;86.07
68701;DHT22;55682;51.114;5.882;2023-02-22T05:34:07;7.14;86.00
68701;DHT22;55682;51.114;5.882;2023-02-22T05:36:33;7.15;85.87
68701;DHT22;55682;51.114;5.882;2023-02-22T05:38:58;7.15;85.89
68701;DHT22;55682;51.114;5.882;2023-02-22T05:41:24;7.18;85.83
68701;DHT22;55682;51.114;5.882;2023-02-22T05:43:49;7.15;85.82
68701;DHT22;55682;51.114;5.882;2023-02-22T05:46:15;7.12;85.64
68701;DHT22;55682;51.114;5.882;2023-02-22T05:48:41;7.03;85.89
68701;DHT22;55682;51.114;5.882;2023-02-22T05:51:07;7.00;86.06
68701;DHT22;55682;51.114;5.882;2023-02-22T05:53:34;7.01;85.91
68701;DHT22;55682;51.114;5.882;2023-02-22T05:56:00;6.99;85.76
68701;DHT22;55682;51.114;5.882;2023-02-22T05:58:25;7.02;85.66
68701;DHT22;55682;51.114;5.882;2023-02-22T06:00:51;6.99;85.77
68701;DHT22;55682;51.114;5.882;2023-02-22T06:03:17;6.79;86.08
68701;DHT22;55682;51.114;5.882;2023-02-22T06:05:42;6.63;86.78
68701;DHT22;55682;51.114;5.882;2023-02-22T06:08:08;6.48;87.30
68701;DHT22;55682;51.114;5.882;2023-02-22T06:10:34;6.38;87.45
68701;DHT22;55682;51.114;5.882;2023-02-22T06:13:01;6.33;87.62
68701;DHT22;55682;51.114;5.882;2023-02-22T06:15:27;6.29;87.53
68701;DHT22;55682;51.114;5.882;2023-02-22T06:17:54;6.28;87.46
68701;DHT22;55682;51.114;5.882;2023-02-22T06:20:23;6.30;87.48
68701;DHT22;55682;51.114;5.882;2023-02-22T06:22:51;6.34;87.13
68701;DHT22;55682;51.114;5.882;2023-02-22T06:25:19;6.36;86.97
68701;DHT22;55682;51.114;5.882;2023-02-22T06:27:45;6.41;86.93
68701;DHT22;55682;51.114;5.882;2023-02-22T06:30:12;6.41;86.98
68701;DHT22;55682;51.114;5.882;2023-02-22T06:32:38;6.39;87.04
68701;DHT22;55682;51.114;5.882;2023-02-22T06:35:04;6.41;87.20
68701;DHT22;55682;51.114;5.882;2023-02-22T06:37:30;6.49;86.64
68701;DHT22;55682;51.114;5.882;2023-02-22T06:39:55;6.46;86.45
68701;DHT22;55682;51.114;5.882;2023-02-22T06:42:21;6.42;86.60
68701;DHT22;55682;51.114;5.882;2023-02-22T06:44:47;6.43;86.52
68701;DHT22;55682;51.114;5.882;2023-02-22T06:47:12;6.46;86.34
68701;DHT22;55682;51.114;5.882;2023-02-22T06:49:38;6.46;86.29
68701;DHT22;55682;51.114;5.882;2023-02-22T06:52:05;6.48;86.30
68701;DHT22;55682;51.114;5.882;2023-02-22T06:54:31;6.42;86.48
68701;DHT22;55682;51.114;5.882;2023-02-22T06:56:57;6.29;86.63
68701;DHT22;55682;51.114;5.882;2023-02-22T06:59:22;6.14;87.02
68701;DHT22;55682;51.114;5.882;2023-02-22T07:01:48;6.10;87.32
68701;DHT22;55682;51.114;5.882;2023-02-22T07:04:14;6.11;87.25
68701;DHT22;55682;51.114;5.882;2023-02-22T07:06:47;6.13;87.12
68701;DHT22;55682;51.114;5.882;2023-02-22T07:09:14;6.19;86.91
68701;DHT22;55682;51.114;5.882;2023-02-22T07:11:40;6.26;86.77
68701;DHT22;55682;51.114;5.882;2023-02-22T07:14:06;6.29;86.61
68701;DHT22;55682;51.114;5.882;2023-02-22T07:16:32;6.27;86.41
68701;DHT22;55682;51.114;5.882;2023-02-22T07:18:58;6.22;86.48
68701;DHT22;55682;51.114;5.882;2023-02-22T07:21:28;6.13;87.00
68701;DHT22;55682;51.114;5.882;2023-02-22T07:23:56;6.04;87.11
68701;DHT22;55682;51.114;5.882;2023-02-22T07:26:24;6.10;87.41
68701;DHT22;55682;51.114;5.882;2023-02-22T07:28:50;6.15;87.27
68701;DHT22;55682;51.114;5.882;2023-02-22T07:31:17;6.16;87.24
68701;DHT22;55682;51.114;5.882;2023-02-22T07:33:45;6.24;87.34
68701;DHT22;55682;51.114;5.882;2023-02-22T07:36:10;6.38;86.90
68701;DHT22;55682;51.114;5.882;2023-02-22T07:38:38;6.50;86.64
68701;DHT22;55682;51.114;5.882;2023-02-22T07:41:03;6.61;86.27
68701;DHT22;55682;51.114;5.882;2023-02-22T07:43:29;6.69;86.06
68701;DHT22;55682;51.114;5.882;2023-02-22T07:45:59;6.78;85.67
68701;DHT22;55682;51.114;5.882;2023-02-22T07:48:26;6.88;85.49
68701;DHT22;55682;51.114;5.882;2023-02-22T07:50:52;7.00;85.34
68701;DHT22;55682;51.114;5.882;2023-02-22T07:55:46;7.35;84.21
68701;DHT22;55682;51.114;5.882;2023-02-22T07:58:17;7.53;83.84
68701;DHT22;55682;51.114;5.882;2023-02-22T08:00:43;7.72;83.22
68701;DHT22;55682;51.114;5.882;2023-02-22T08:03:13;7.87;82.54
68701;DHT22;55682;51.114;5.882;2023-02-22T08:05:41;8.05;82.06
68701;DHT22;55682;51.114;5.882;2023-02-22T08:08:07;8.21;82.26
68701;DHT22;55682;51.114;5.882;2023-02-22T08:10:34;8.47;81.88
68701;DHT22;55682;51.114;5.882;2023-02-22T08:13:00;8.68;80.99
68701;DHT22;55682;51.114;5.882;2023-02-22T08:15:29;9.00;80.30
68701;DHT22;55682;51.114;5.882;2023-02-22T08:17:57;9.33;79.05
68701;DHT22;55682;51.114;5.882;2023-02-22T08:20:23;9.64;77.81
68701;DHT22;55682;51.114;5.882;2023-02-22T08:22:49;10.03;77.21
68701;DHT22;55682;51.114;5.882;2023-02-22T08:25:18;10.30;75.05
68701;DHT22;55682;51.114;5.882;2023-02-22T08:27:44;10.58;74.15
68701;DHT22;55682;51.114;5.882;2023-02-22T08:30:20;10.82;73.49
68701;DHT22;55682;51.114;5.882;2023-02-22T08:32:46;11.04;71.55
68701;DHT22;55682;51.114;5.882;2023-02-22T08:35:13;11.18;70.06
68701;DHT22;55682;51.114;5.882;2023-02-22T08:37:43;11.02;70.57
68701;DHT22;55682;51.114;5.882;2023-02-22T08:40:10;11.14;70.48
68701;DHT22;55682;51.114;5.882;2023-02-22T08:42:35;11.18;70.15
68701;DHT22;55682;51.114;5.882;2023-02-22T08:45:01;11.39;70.36
68701;DHT22;55682;51.114;5.882;2023-02-22T08:47:27;11.59;70.33
68701;DHT22;55682;51.114;5.882;2023-02-22T08:49:52;11.85;69.57
68701;DHT22;55682;51.114;5.882;2023-02-22T08:52:19;12.18;69.15
68701;DHT22;55682;51.114;5.882;2023-02-22T08:54:46;12.64;68.04
68701;DHT22;55682;51.114;5.882;2023-02-22T08:57:12;13.05;65.84
68701;DHT22;55682;51.114;5.882;2023-02-22T08:59:38;13.65;64.37
68701;DHT22;55682;51.114;5.882;2023-02-22T09:02:04;13.99;63.25
68701;DHT22;55682;51.114;5.882;2023-02-22T09:04:30;14.12;62.92
68701;DHT22;55682;51.114;5.882;2023-02-22T09:06:56;14.42;61.69
68701;DHT22;55682;51.114;5.882;2023-02-22T09:09:21;14.14;61.96
68701;DHT22;55682;51.114;5.882;2023-02-22T09:11:48;14.11;62.13
68701;DHT22;55682;51.114;5.882;2023-02-22T09:14:13;14.42;61.47
68701;DHT22;55682;51.114;5.882;2023-02-22T09:16:42;14.80;59.67
68701;DHT22;55682;51.114;5.882;2023-02-22T09:19:08;14.89;59.76
68701;DHT22;55682;51.114;5.882;2023-02-22T09:21:33;14.86;59.44
68701;DHT22;55682;51.114;5.882;2023-02-22T09:23:59;14.84;59.20
68701;DHT22;55682;51.114;5.882;2023-02-22T09:26:36;14.79;59.46
68701;DHT22;55682;51.114;5.882;2023-02-22T09:29:07;14.72;60.41
68701;DHT22;55682;51.114;5.882;2023-02-22T09:31:38;14.97;59.39
68701;DHT22;55682;51.114;5.882;2023-02-22T09:34:06;15.09;59.44
68701;DHT22;55682;51.114;5.882;2023-02-22T09:36:48;15.02;60.54
68701;DHT22;55682;51.114;5.882;2023-02-22T09:39:16;15.36;59.90
68701;DHT22;55682;51.114;5.882;2023-02-22T09:45:12;16.31;57.21
68701;DHT22;55682;51.114;5.882;2023-02-22T09:47:43;16.62;56.04
68701;DHT22;55682;51.114;5.882;2023-02-22T09:50:15;16.78;55.85
68701;DHT22;55682;51.114;5.882;2023-02-22T09:58:02;17.72;52.95
68701;DHT22;55682;51.114;5.882;2023-02-22T10:00:34;17.77;53.22
68701;DHT22;55682;51.114;5.882;2023-02-22T10:03:26;17.73;53.20
68701;DHT22;55682;51.114;5.882;2023-02-22T10:06:07;17.78;52.77
68701;DHT22;55682;51.114;5.882;2023-02-22T10:08:36;17.67;53.40
68701;DHT22;55682;51.114;5.882;2023-02-22T10:11:31;18.15;52.74
68701;DHT22;55682;51.114;5.882;2023-02-22T10:16:51;19.05;49.18
68701;DHT22;55682;51.114;5.882;2023-02-22T10:24:59;19.80;46.86
68701;DHT22;55682;51.114;5.882;2023-02-22T10:27:57;19.76;46.21
68701;DHT22;55682;51.114;5.882;2023-02-22T10:30:32;19.67;46.72
68701;DHT22;55682;51.114;5.882;2023-02-22T10:33:14;19.43;47.51
68701;DHT22;55682;51.114;5.882;2023-02-22T10:35:43;19.70;46.12
68701;DHT22;55682;51.114;5.882;2023-02-22T10:43:33;20.45;43.58
68701;DHT22;55682;51.114;5.882;2023-02-22T10:46:04;20.57;43.10
68701;DHT22;55682;51.114;5.882;2023-02-22T10:48:35;20.50;44.02
68701;DHT22;55682;51.114;5.882;2023-02-22T10:51:04;20.51;43.29
68701;DHT22;55682;51.114;5.882;2023-02-22T10:53:33;20.65;42.97
68701;DHT22;55682;51.114;5.882;2023-02-22T11:06:25;20.85;41.81
68701;DHT22;55682;51.114;5.882;2023-02-22T11:11:39;20.41;42.45
68701;DHT22;55682;51.114;5.882;2023-02-22T11:14:06;20.14;43.24
68701;DHT22;55682;51.114;5.882;2023-02-22T11:16:32;20.12;43.06
68701;DHT22;55682;51.114;5.882;2023-02-22T11:19:21;19.83;42.98
68701;DHT22;55682;51.114;5.882;2023-02-22T11:21:51;19.51;43.80
68701;DHT22;55682;51.114;5.882;2023-02-22T11:24:21;19.36;44.70
68701;DHT22;55682;51.114;5.882;2023-02-22T11:27:01;19.47;44.66
68701;DHT22;55682;51.114;5.882;2023-02-22T11:29:34;19.75;44.00
68701;DHT22;55682;51.114;5.882;2023-02-22T11:32:12;20.13;44.13
68701;DHT22;55682;51.114;5.882;2023-02-22T11:34:41;20.56;43.16
68701;DHT22;55682;51.114;5.882;2023-02-22T11:40:13;21.09;41.89
68701;DHT22;55682;51.114;5.882;2023-02-22T11:42:44;21.10;41.51
68701;DHT22;55682;51.114;5.882;2023-02-22T11:45:17;21.22;40.90
68701;DHT22;55682;51.114;5.882;2023-02-22T11:48:06;21.11;41.16
68701;DHT22;55682;51.114;5.882;2023-02-22T11:56:24;20.71;41.45
68701;DHT22;55682;51.114;5.882;2023-02-22T12:01:41;20.47;42.42
68701;DHT22;55682;51.114;5.882;2023-02-22T12:07:16;20.37;42.17
68701;DHT22;55682;51.114;5.882;2023-02-22T12:12:57;20.01;43.40
68701;DHT22;55682;51.114;5.882;2023-02-22T12:16:11;19.94;43.65
68701;DHT22;55682;51.114;5.882;2023-02-22T12:21:26;19.79;44.32
68701;DHT22;55682;51.114;5.882;2023-02-22T12:24:08;19.91;43.91
68701;DHT22;55682;51.114;5.882;2023-02-22T12:26:58;19.75;44.69
68701;DHT22;55682;51.114;5.882;2023-02-22T12:29:34;19.69;44.77
68701;DHT22;55682;51.114;5.882;2023-02-22T12:32:11;19.60;45.25
68701;DHT22;55682;51.114;5.882;2023-02-22T12:34:47;19.70;45.57
68701;DHT22;55682;51.114;5.882;2023-02-22T12:40:23;19.69;45.93
68701;DHT22;55682;51.114;5.882;2023-02-22T12:45:47;19.76;45.85
68701;DHT22;55682;51.114;5.882;2023-02-22T12:50:45;20.13;45.12
68701;DHT22;55682;51.114;5.882;2023-02-22T12:55:44;20.24;44.95
68701;DHT22;55682;51.114;5.882;2023-02-22T12:58:23;20.33;44.89
68701;DHT22;55682;51.114;5.882;2023-02-22T13:01:10;20.26;45.25
68701;DHT22;55682;51.114;5.882;2023-02-22T13:03:41;20.13;45.30
68701;DHT22;55682;51.114;5.882;2023-02-22T13:19:47;19.40;47.56
68701;DHT22;55682;51.114;5.882;2023-02-22T13:23:08;19.24;48.13
68701;DHT22;55682;51.114;5.882;2023-02-22T13:27:53;19.11;48.79
68701;DHT22;55682;51.114;5.882;2023-02-22T13:36:13;18.77;49.64
68701;DHT22;55682;51.114;5.882;2023-02-22T13:39:03;18.58;50.35
68701;DHT22;55682;51.114;5.882;2023-02-22T13:47:24;17.83;52.68
68701;DHT22;55682;51.114;5.882;2023-02-22T13:52:36;17.59;53.35
68701;DHT22;55682;51.114;5.882;2023-02-22T13:55:16;17.30;54.31
68701;DHT22;55682;51.114;5.882;2023-02-22T13:57:47;17.19;54.56
68701;DHT22;55682;51.114;5.882;2023-02-22T14:03:00;17.11;54.82
68701;DHT22;55682;51.114;5.882;2023-02-22T14:10:57;17.06;55.29
68701;DHT22;55682;51.114;5.882;2023-02-22T14:13:25;17.09;55.16
68701;DHT22;55682;51.114;5.882;2023-02-22T14:16:15;16.99;55.58
68701;DHT22;55682;51.114;5.882;2023-02-22T14:18:44;16.78;56.35
68701;DHT22;55682;51.114;5.882;2023-02-22T14:23:51;16.58;57.32
68701;DHT22;55682;51.114;5.882;2023-02-22T14:26:36;16.52;57.40
68701;DHT22;55682;51.114;5.882;2023-02-22T14:32:01;16.50;58.07
68701;DHT22;55682;51.114;5.882;2023-02-22T14:34:46;16.45;58.02
68701;DHT22;55682;51.114;5.882;2023-02-22T14:39:49;16.30;57.86
68701;DHT22;55682;51.114;5.882;2023-02-22T14:42:39;16.21;58.08
68701;DHT22;55682;51.114;5.882;2023-02-22T14:45:18;16.21;58.22
68701;DHT22;55682;51.114;5.882;2023-02-22T14:50:50;16.45;57.55
68701;DHT22;55682;51.114;5.882;2023-02-22T15:01:38;16.42;58.31
68701;DHT22;55682;51.114;5.882;2023-02-22T15:06:42;16.42;58.64
68701;DHT22;55682;51.114;5.882;2023-02-22T15:09:13;16.35;59.04
68701;DHT22;55682;51.114;5.882;2023-02-22T15:11:52;16.26;59.38
68701;DHT22;55682;51.114;5.882;2023-02-22T15:14:24;16.14;59.28
68701;DHT22;55682;51.114;5.882;2023-02-22T15:16:56;15.93;60.10
68701;DHT22;55682;51.114;5.882;2023-02-22T15:19:29;15.82;60.79
68701;DHT22;55682;51.114;5.882;2023-02-22T15:21:58;15.77;61.00
68701;DHT22;55682;51.114;5.882;2023-02-22T15:24:36;15.78;60.86
68701;DHT22;55682;51.114;5.882;2023-02-22T15:27:18;15.62;61.48
68701;DHT22;55682;51.114;5.882;2023-02-22T15:29:44;15.57;61.55
68701;DHT22;55682;51.114;5.882;2023-02-22T15:32:19;15.37;62.06
68701;DHT22;55682;51.114;5.882;2023-02-22T15:34:53;15.25;61.99
68701;DHT22;55682;51.114;5.882;2023-02-22T15:37:24;15.11;62.40
68701;DHT22;55682;51.114;5.882;2023-02-22T15:39:51;15.03;62.50
68701;DHT22;55682;51.114;5.882;2023-02-22T15:42:27;14.94;62.93
68701;DHT22;55682;51.114;5.882;2023-02-22T15:44:55;14.95;62.93
68701;DHT22;55682;51.114;5.882;2023-02-22T15:47:24;14.86;63.35
68701;DHT22;55682;51.114;5.882;2023-02-22T15:50:13;14.79;63.60
68701;DHT22;55682;51.114;5.882;2023-02-22T15:55:33;14.75;64.00
68701;DHT22;55682;51.114;5.882;2023-02-22T15:58:07;14.60;64.59
68701;DHT22;55682;51.114;5.882;2023-02-22T16:00:37;14.51;65.17
68701;DHT22;55682;51.114;5.882;2023-02-22T16:03:08;14.50;65.33
68701;DHT22;55682;51.114;5.882;2023-02-22T16:05:46;14.50;65.54
68701;DHT22;55682;51.114;5.882;2023-02-22T16:08:20;14.50;65.79
68701;DHT22;55682;51.114;5.882;2023-02-22T16:10:58;14.41;66.15
68701;DHT22;55682;51.114;5.882;2023-02-22T16:13:27;14.36;66.21
68701;DHT22;55682;51.114;5.882;2023-02-22T16:17:08;14.40;66.24
68701;DHT22;55682;51.114;5.882;2023-02-22T16:18:51;14.38;66.57
68701;DHT22;55682;51.114;5.882;2023-02-22T16:21:59;14.34;66.65
68701;DHT22;55682;51.114;5.882;2023-02-22T16:24:32;14.27;66.87
68701;DHT22;55682;51.114;5.882;2023-02-22T16:29:40;14.21;67.84
68701;DHT22;55682;51.114;5.882;2023-02-22T16:32:06;14.18;68.28
68701;DHT22;55682;51.114;5.882;2023-02-22T16:34:32;14.12;68.76
68701;DHT22;55682;51.114;5.882;2023-02-22T16:36:58;13.96;69.71
68701;DHT22;55682;51.114;5.882;2023-02-22T16:39:29;13.90;70.09
68701;DHT22;55682;51.114;5.882;2023-02-22T16:41:58;13.83;70.55
68701;DHT22;55682;51.114;5.882;2023-02-22T16:44:26;13.74;71.04
68701;DHT22;55682;51.114;5.882;2023-02-22T16:46:54;13.62;71.61
68701;DHT22;55682;51.114;5.882;2023-02-22T16:49:20;13.52;71.99
68701;DHT22;55682;51.114;5.882;2023-02-22T16:51:52;13.46;72.16
68701;DHT22;55682;51.114;5.882;2023-02-22T16:54:30;13.33;72.61
68701;DHT22;55682;51.114;5.882;2023-02-22T16:57:00;13.36;72.66
68701;DHT22;55682;51.114;5.882;2023-02-22T16:59:27;13.33;73.06
68701;DHT22;55682;51.114;5.882;2023-02-22T17:01:55;13.33;73.09
68701;DHT22;55682;51.114;5.882;2023-02-22T17:04:24;13.35;73.08
68701;DHT22;55682;51.114;5.882;2023-02-22T17:06:51;13.37;73.17
68701;DHT22;55682;51.114;5.882;2023-02-22T17:09:17;13.29;73.28
68701;DHT22;55682;51.114;5.882;2023-02-22T17:11:48;13.31;73.43
68701;DHT22;55682;51.114;5.882;2023-02-22T17:14:21;13.29;73.31
68701;DHT22;55682;51.114;5.882;2023-02-22T17:16:51;13.21;73.87
68701;DHT22;55682;51.114;5.882;2023-02-22T17:19:19;13.18;73.91
68701;DHT22;55682;51.114;5.882;2023-02-22T17:21:46;13.14;74.32
68701;DHT22;55682;51.114;5.882;2023-02-22T17:24:17;13.15;74.22
68701;DHT22;55682;51.114;5.882;2023-02-22T17:26:45;13.11;74.27
68701;DHT22;55682;51.114;5.882;2023-02-22T17:29:10;13.07;74.57
68701;DHT22;55682;51.114;5.882;2023-02-22T17:31:38;13.09;74.59
68701;DHT22;55682;51.114;5.882;2023-02-22T17:34:05;13.08;74.42
68701;DHT22;55682;51.114;5.882;2023-02-22T17:36:32;13.04;74.48
68701;DHT22;55682;51.114;5.882;2023-02-22T17:38:58;12.93;74.92
68701;DHT22;55682;51.114;5.882;2023-02-22T17:41:25;12.89;75.12
68701;DHT22;55682;51.114;5.882;2023-02-22T17:43:51;12.88;75.02
68701;DHT22;55682;51.114;5.882;2023-02-22T17:46:19;12.89;74.85
68701;DHT22;55682;51.114;5.882;2023-02-22T17:48:46;12.79;74.98
68701;DHT22;55682;51.114;5.882;2023-02-22T17:51:13;12.71;75.47
68701;DHT22;55682;51.114;5.882;2023-02-22T17:53:39;12.70;75.38
68701;DHT22;55682;51.114;5.882;2023-02-22T17:56:06;12.69;75.56
68701;DHT22;55682;51.114;5.882;2023-02-22T17:58:32;12.65;75.71
68701;DHT22;55682;51.114;5.882;2023-02-22T18:00:57;12.69;75.55
68701;DHT22;55682;51.114;5.882;2023-02-22T18:03:24;12.67;75.54
68701;DHT22;55682;51.114;5.882;2023-02-22T18:05:53;12.69;75.71
68701;DHT22;55682;51.114;5.882;2023-02-22T18:08:20;12.63;75.94
68701;DHT22;55682;51.114;5.882;2023-02-22T18:10:48;12.62;75.80
68701;DHT22;55682;51.114;5.882;2023-02-22T18:13:17;12.58;75.64
68701;DHT22;55682;51.114;5.882;2023-02-22T18:15:44;12.57;75.93
68701;DHT22;55682;51.114;5.882;2023-02-22T18:18:11;12.58;75.86
68701;DHT22;55682;51.114;5.882;2023-02-22T18:20:40;12.56;76.10
68701;DHT22;55682;51.114;5.882;2023-02-22T18:23:13;12.49;76.25
68701;DHT22;55682;51.114;5.882;2023-02-22T18:25:39;12.47;76.57
68701;DHT22;55682;51.114;5.882;2023-02-22T18:28:13;12.47;76.75
68701;DHT22;55682;51.114;5.882;2023-02-22T18:30:39;12.51;76.86
68701;DHT22;55682;51.114;5.882;2023-02-22T18:33:05;12.45;77.17
68701;DHT22;55682;51.114;5.882;2023-02-22T18:35:38;12.43;77.14
68701;DHT22;55682;51.114;5.882;2023-02-22T18:38:04;12.41;77.15
68701;DHT22;55682;51.114;5.882;2023-02-22T18:40:30;12.38;77.18
68701;DHT22;55682;51.114;5.882;2023-02-22T18:42:56;12.35;77.29
68701;DHT22;55682;51.114;5.882;2023-02-22T18:45:21;12.29;77.85